sensor_id;sensor_type;location;lat;lon;timestamp;P1;durP1;ratioP1;P2;durP2;ratioP2
8714;SDS011;4394;51.208;8.904;2023-12-28T00:00:49;4.93;;;3.20;;
8714;SDS011;4394;51.208;8.904;2023-12-28T00:03:37;6.37;;;3.40;;
8714;SDS011;4394;51.208;8.904;2023-12-28T00:06:28;6.13;;;3.90;;
8714;SDS011;4394;51.208;8.904;2023-12-28T00:09:16;6.47;;;3.80;;
8714;SDS011;4394;51.208;8.904;2023-12-28T00:12:05;5.60;;;3.30;;
8714;SDS011;4394;51.208;8.904;2023-12-28T00:14:53;4.70;;;3.50;;
8714;SDS011;4394;51.208;8.904;2023-12-28T00:17:41;4.90;;;3.33;;
8714;SDS011;4394;51.208;8.904;2023-12-28T00:20:29;6.17;;;3.50;;
8714;SDS011;4394;51.208;8.904;2023-12-28T00:23:19;5.13;;;3.50;;
8714;SDS011;4394;51.208;8.904;2023-12-28T00:26:07;7.40;;;3.47;;
8714;SDS011;4394;51.208;8.904;2023-12-28T00:28:55;5.77;;;3.50;;
8714;SDS011;4394;51.208;8.904;2023-12-28T00:31:43;4.90;;;3.30;;
8714;SDS011;4394;51.208;8.904;2023-12-28T00:34:31;4.70;;;3.47;;
8714;SDS011;4394;51.208;8.904;2023-12-28T00:37:19;5.23;;;3.17;;
8714;SDS011;4394;51.208;8.904;2023-12-28T00:40:09;4.23;;;3.00;;
8714;SDS011;4394;51.208;8.904;2023-12-28T00:42:57;7.00;;;3.47;;
8714;SDS011;4394;51.208;8.904;2023-12-28T00:45:45;4.70;;;3.27;;
8714;SDS011;4394;51.208;8.904;2023-12-28T00:48:33;4.70;;;3.20;;
8714;SDS011;4394;51.208;8.904;2023-12-28T00:51:21;5.43;;;3.00;;
8714;SDS011;4394;51.208;8.904;2023-12-28T00:54:09;5.53;;;3.33;;
8714;SDS011;4394;51.208;8.904;2023-12-28T00:56:58;6.57;;;3.80;;
8714;SDS011;4394;51.208;8.904;2023-12-28T00:59:46;5.57;;;3.40;;
8714;SDS011;4394;51.208;8.904;2023-12-28T01:02:34;5.93;;;3.40;;
8714;SDS011;4394;51.208;8.904;2023-12-28T01:05:22;4.80;;;3.30;;
8714;SDS011;4394;51.208;8.904;2023-12-28T01:08:12;4.87;;;3.30;;
8714;SDS011;4394;51.208;8.904;2023-12-28T01:11:00;4.37;;;3.07;;
8714;SDS011;4394;51.208;8.904;2023-12-28T01:13:50;4.63;;;3.10;;
8714;SDS011;4394;51.208;8.904;2023-12-28T01:16:39;3.27;;;2.73;;
8714;SDS011;4394;51.208;8.904;2023-12-28T01:19:27;6.43;;;3.10;;
8714;SDS011;4394;51.208;8.904;2023-12-28T01:22:15;4.07;;;2.90;;
8714;SDS011;4394;51.208;8.904;2023-12-28T01:25:03;5.73;;;2.87;;
8714;SDS011;4394;51.208;8.904;2023-12-28T01:27:51;3.90;;;2.67;;
8714;SDS011;4394;51.208;8.904;2023-12-28T01:30:41;5.73;;;3.33;;
8714;SDS011;4394;51.208;8.904;2023-12-28T01:33:30;6.87;;;2.83;;
8714;SDS011;4394;51.208;8.904;2023-12-28T01:36:19;3.60;;;2.87;;
8714;SDS011;4394;51.208;8.904;2023-12-28T01:39:07;4.07;;;2.87;;
8714;SDS011;4394;51.208;8.904;2023-12-28T01:41:57;6.93;;;3.30;;
8714;SDS011;4394;51.208;8.904;2023-12-28T01:44:45;3.57;;;2.77;;
8714;SDS011;4394;51.208;8.904;2023-12-28T01:47:34;5.23;;;3.00;;
8714;SDS011;4394;51.208;8.904;2023-12-28T01:50:23;5.47;;;3.10;;
8714;SDS011;4394;51.208;8.904;2023-12-28T01:53:13;3.10;;;2.30;;
8714;SDS011;4394;51.208;8.904;2023-12-28T01:56:02;4.90;;;2.70;;
8714;SDS011;4394;51.208;8.904;2023-12-28T01:58:50;4.40;;;2.87;;
8714;SDS011;4394;51.208;8.904;2023-12-28T02:01:38;4.70;;;2.53;;
8714;SDS011;4394;51.208;8.904;2023-12-28T02:04:28;5.13;;;2.80;;
8714;SDS011;4394;51.208;8.904;2023-12-28T02:07:16;5.73;;;2.83;;
8714;SDS011;4394;51.208;8.904;2023-12-28T02:10:06;4.60;;;2.97;;
8714;SDS011;4394;51.208;8.904;2023-12-28T02:12:54;4.43;;;3.10;;
8714;SDS011;4394;51.208;8.904;2023-12-28T02:15:43;4.70;;;2.67;;
8714;SDS011;4394;51.208;8.904;2023-12-28T02:18:34;5.50;;;2.97;;
8714;SDS011;4394;51.208;8.904;2023-12-28T02:21:27;5.37;;;2.80;;
8714;SDS011;4394;51.208;8.904;2023-12-28T02:24:16;4.47;;;3.10;;
8714;SDS011;4394;51.208;8.904;2023-12-28T02:27:05;3.57;;;2.50;;
8714;SDS011;4394;51.208;8.904;2023-12-28T02:29:53;3.20;;;2.70;;
8714;SDS011;4394;51.208;8.904;2023-12-28T02:32:47;3.07;;;2.57;;
8714;SDS011;4394;51.208;8.904;2023-12-28T02:35:51;4.97;;;2.90;;
8714;SDS011;4394;51.208;8.904;2023-12-28T02:38:42;4.07;;;2.67;;
8714;SDS011;4394;51.208;8.904;2023-12-28T02:41:31;5.13;;;2.50;;
8714;SDS011;4394;51.208;8.904;2023-12-28T02:44:22;4.17;;;2.80;;
8714;SDS011;4394;51.208;8.904;2023-12-28T02:47:10;4.20;;;2.50;;
8714;SDS011;4394;51.208;8.904;2023-12-28T02:49:58;4.20;;;2.60;;
8714;SDS011;4394;51.208;8.904;2023-12-28T02:52:46;5.17;;;2.60;;
8714;SDS011;4394;51.208;8.904;2023-12-28T02:55:34;3.57;;;2.50;;
8714;SDS011;4394;51.208;8.904;2023-12-28T02:58:22;6.00;;;2.77;;
8714;SDS011;4394;51.208;8.904;2023-12-28T03:01:11;3.27;;;2.60;;
8714;SDS011;4394;51.208;8.904;2023-12-28T03:03:59;3.70;;;2.40;;
8714;SDS011;4394;51.208;8.904;2023-12-28T03:06:48;6.73;;;2.80;;
8714;SDS011;4394;51.208;8.904;2023-12-28T03:09:39;4.17;;;2.67;;
8714;SDS011;4394;51.208;8.904;2023-12-28T03:12:27;2.80;;;2.50;;
8714;SDS011;4394;51.208;8.904;2023-12-28T03:15:15;5.37;;;2.40;;
8714;SDS011;4394;51.208;8.904;2023-12-28T03:18:05;3.20;;;2.47;;
8714;SDS011;4394;51.208;8.904;2023-12-28T03:20:54;4.93;;;2.83;;
8714;SDS011;4394;51.208;8.904;2023-12-28T03:23:42;3.03;;;2.10;;
8714;SDS011;4394;51.208;8.904;2023-12-28T03:26:30;3.40;;;2.23;;
8714;SDS011;4394;51.208;8.904;2023-12-28T03:29:17;3.50;;;2.27;;
8714;SDS011;4394;51.208;8.904;2023-12-28T03:32:06;4.10;;;2.33;;
8714;SDS011;4394;51.208;8.904;2023-12-28T03:34:55;4.83;;;2.80;;
8714;SDS011;4394;51.208;8.904;2023-12-28T03:37:44;3.90;;;2.27;;
8714;SDS011;4394;51.208;8.904;2023-12-28T03:40:32;3.50;;;2.60;;
8714;SDS011;4394;51.208;8.904;2023-12-28T03:43:20;2.77;;;2.30;;
8714;SDS011;4394;51.208;8.904;2023-12-28T03:46:08;2.67;;;2.23;;
8714;SDS011;4394;51.208;8.904;2023-12-28T03:48:57;2.57;;;2.10;;
8714;SDS011;4394;51.208;8.904;2023-12-28T03:51:49;3.00;;;2.07;;
8714;SDS011;4394;51.208;8.904;2023-12-28T03:54:37;3.53;;;2.37;;
8714;SDS011;4394;51.208;8.904;2023-12-28T03:57:27;4.13;;;2.60;;
8714;SDS011;4394;51.208;8.904;2023-12-28T04:00:15;3.60;;;2.47;;
8714;SDS011;4394;51.208;8.904;2023-12-28T04:03:03;4.17;;;2.30;;
8714;SDS011;4394;51.208;8.904;2023-12-28T04:05:51;4.93;;;2.60;;
8714;SDS011;4394;51.208;8.904;2023-12-28T04:08:41;3.30;;;2.40;;
8714;SDS011;4394;51.208;8.904;2023-12-28T04:11:29;3.53;;;2.30;;
8714;SDS011;4394;51.208;8.904;2023-12-28T04:14:17;4.47;;;2.50;;
8714;SDS011;4394;51.208;8.904;2023-12-28T04:17:05;4.43;;;2.63;;
8714;SDS011;4394;51.208;8.904;2023-12-28T04:19:53;2.63;;;2.43;;
8714;SDS011;4394;51.208;8.904;2023-12-28T04:22:41;4.00;;;2.40;;
8714;SDS011;4394;51.208;8.904;2023-12-28T04:25:32;4.17;;;2.10;;
8714;SDS011;4394;51.208;8.904;2023-12-28T04:28:19;2.57;;;2.30;;
8714;SDS011;4394;51.208;8.904;2023-12-28T04:31:07;2.97;;;2.47;;
8714;SDS011;4394;51.208;8.904;2023-12-28T04:33:55;3.10;;;2.33;;
8714;SDS011;4394;51.208;8.904;2023-12-28T04:36:43;3.53;;;2.50;;
8714;SDS011;4394;51.208;8.904;2023-12-28T04:39:33;2.77;;;2.43;;
8714;SDS011;4394;51.208;8.904;2023-12-28T04:42:22;4.00;;;2.77;;
8714;SDS011;4394;51.208;8.904;2023-12-28T04:45:10;2.00;;;1.80;;
8714;SDS011;4394;51.208;8.904;2023-12-28T04:47:58;3.73;;;2.30;;
8714;SDS011;4394;51.208;8.904;2023-12-28T04:50:47;4.47;;;2.60;;
8714;SDS011;4394;51.208;8.904;2023-12-28T04:53:35;4.77;;;2.33;;
8714;SDS011;4394;51.208;8.904;2023-12-28T04:56:23;2.83;;;2.13;;
8714;SDS011;4394;51.208;8.904;2023-12-28T04:59:12;2.20;;;1.93;;
8714;SDS011;4394;51.208;8.904;2023-12-28T05:02:00;3.60;;;2.17;;
8714;SDS011;4394;51.208;8.904;2023-12-28T05:04:48;3.50;;;2.30;;
8714;SDS011;4394;51.208;8.904;2023-12-28T05:07:36;3.00;;;1.90;;
8714;SDS011;4394;51.208;8.904;2023-12-28T05:10:24;3.33;;;2.07;;
8714;SDS011;4394;51.208;8.904;2023-12-28T05:13:13;2.40;;;2.20;;
8714;SDS011;4394;51.208;8.904;2023-12-28T05:16:03;3.17;;;2.57;;
8714;SDS011;4394;51.208;8.904;2023-12-28T05:18:51;3.00;;;2.10;;
8714;SDS011;4394;51.208;8.904;2023-12-28T05:21:39;3.40;;;2.20;;
8714;SDS011;4394;51.208;8.904;2023-12-28T05:24:27;3.57;;;2.43;;
8714;SDS011;4394;51.208;8.904;2023-12-28T05:27:15;2.73;;;2.00;;
8714;SDS011;4394;51.208;8.904;2023-12-28T05:30:06;2.07;;;1.87;;
8714;SDS011;4394;51.208;8.904;2023-12-28T05:32:56;2.97;;;1.93;;
8714;SDS011;4394;51.208;8.904;2023-12-28T05:35:44;3.30;;;2.07;;
8714;SDS011;4394;51.208;8.904;2023-12-28T05:38:32;2.20;;;2.00;;
8714;SDS011;4394;51.208;8.904;2023-12-28T05:41:20;2.17;;;1.90;;
8714;SDS011;4394;51.208;8.904;2023-12-28T05:44:08;2.73;;;1.90;;
8714;SDS011;4394;51.208;8.904;2023-12-28T05:46:56;3.10;;;2.47;;
8714;SDS011;4394;51.208;8.904;2023-12-28T05:49:45;2.63;;;2.03;;
8714;SDS011;4394;51.208;8.904;2023-12-28T05:52:33;3.10;;;2.47;;
8714;SDS011;4394;51.208;8.904;2023-12-28T05:55:21;2.83;;;2.13;;
8714;SDS011;4394;51.208;8.904;2023-12-28T05:58:09;3.20;;;2.33;;
8714;SDS011;4394;51.208;8.904;2023-12-28T06:00:57;3.07;;;2.30;;
8714;SDS011;4394;51.208;8.904;2023-12-28T06:03:45;4.77;;;2.40;;
8714;SDS011;4394;51.208;8.904;2023-12-28T06:06:37;2.97;;;2.00;;
8714;SDS011;4394;51.208;8.904;2023-12-28T06:09:25;3.40;;;2.00;;
8714;SDS011;4394;51.208;8.904;2023-12-28T06:12:14;2.83;;;2.07;;
8714;SDS011;4394;51.208;8.904;2023-12-28T06:15:02;2.73;;;2.30;;
8714;SDS011;4394;51.208;8.904;2023-12-28T06:17:51;3.27;;;1.93;;
8714;SDS011;4394;51.208;8.904;2023-12-28T06:20:39;2.80;;;2.03;;
8714;SDS011;4394;51.208;8.904;2023-12-28T06:23:28;3.53;;;2.07;;
8714;SDS011;4394;51.208;8.904;2023-12-28T06:26:16;4.80;;;2.00;;
8714;SDS011;4394;51.208;8.904;2023-12-28T06:29:07;2.23;;;2.10;;
8714;SDS011;4394;51.208;8.904;2023-12-28T06:31:55;3.17;;;2.20;;
8714;SDS011;4394;51.208;8.904;2023-12-28T06:34:43;3.00;;;2.20;;
8714;SDS011;4394;51.208;8.904;2023-12-28T06:37:31;3.10;;;2.20;;
8714;SDS011;4394;51.208;8.904;2023-12-28T06:40:20;4.63;;;2.67;;
8714;SDS011;4394;51.208;8.904;2023-12-28T06:43:08;2.57;;;1.93;;
8714;SDS011;4394;51.208;8.904;2023-12-28T06:45:56;3.20;;;2.20;;
8714;SDS011;4394;51.208;8.904;2023-12-28T06:48:44;5.00;;;2.70;;
8714;SDS011;4394;51.208;8.904;2023-12-28T06:51:33;4.17;;;2.20;;
8714;SDS011;4394;51.208;8.904;2023-12-28T06:54:21;2.77;;;2.30;;
8714;SDS011;4394;51.208;8.904;2023-12-28T06:57:10;2.40;;;2.10;;
8714;SDS011;4394;51.208;8.904;2023-12-28T06:59:58;2.40;;;1.87;;
8714;SDS011;4394;51.208;8.904;2023-12-28T07:02:48;2.70;;;2.10;;
8714;SDS011;4394;51.208;8.904;2023-12-28T07:05:36;2.23;;;2.03;;
8714;SDS011;4394;51.208;8.904;2023-12-28T07:08:24;2.80;;;1.93;;
8714;SDS011;4394;51.208;8.904;2023-12-28T07:11:12;3.53;;;2.00;;
8714;SDS011;4394;51.208;8.904;2023-12-28T07:14:01;3.17;;;2.00;;
8714;SDS011;4394;51.208;8.904;2023-12-28T07:16:49;2.50;;;2.30;;
8714;SDS011;4394;51.208;8.904;2023-12-28T07:19:37;3.70;;;2.30;;
8714;SDS011;4394;51.208;8.904;2023-12-28T07:22:26;2.63;;;2.20;;
8714;SDS011;4394;51.208;8.904;2023-12-28T07:25:14;3.53;;;2.17;;
8714;SDS011;4394;51.208;8.904;2023-12-28T07:28:02;2.93;;;2.07;;
8714;SDS011;4394;51.208;8.904;2023-12-28T07:30:52;2.87;;;2.27;;
8714;SDS011;4394;51.208;8.904;2023-12-28T07:33:43;3.00;;;2.00;;
8714;SDS011;4394;51.208;8.904;2023-12-28T07:36:31;2.33;;;2.00;;
8714;SDS011;4394;51.208;8.904;2023-12-28T07:39:20;3.20;;;2.50;;
8714;SDS011;4394;51.208;8.904;2023-12-28T07:42:08;2.77;;;1.97;;
8714;SDS011;4394;51.208;8.904;2023-12-28T07:44:56;2.30;;;2.10;;
8714;SDS011;4394;51.208;8.904;2023-12-28T07:47:45;3.30;;;1.90;;
8714;SDS011;4394;51.208;8.904;2023-12-28T07:50:33;3.00;;;2.23;;
8714;SDS011;4394;51.208;8.904;2023-12-28T07:53:21;1.83;;;1.73;;
8714;SDS011;4394;51.208;8.904;2023-12-28T07:56:09;2.33;;;2.03;;
8714;SDS011;4394;51.208;8.904;2023-12-28T07:58:57;2.40;;;2.03;;
8714;SDS011;4394;51.208;8.904;2023-12-28T08:01:45;2.23;;;1.80;;
8714;SDS011;4394;51.208;8.904;2023-12-28T08:04:34;3.07;;;1.97;;
8714;SDS011;4394;51.208;8.904;2023-12-28T08:07:23;4.07;;;2.10;;
8714;SDS011;4394;51.208;8.904;2023-12-28T08:10:11;2.73;;;2.00;;
8714;SDS011;4394;51.208;8.904;2023-12-28T08:13:02;2.63;;;2.20;;
8714;SDS011;4394;51.208;8.904;2023-12-28T08:15:50;5.10;;;2.63;;
8714;SDS011;4394;51.208;8.904;2023-12-28T08:18:38;3.37;;;2.10;;
8714;SDS011;4394;51.208;8.904;2023-12-28T08:21:28;3.10;;;1.80;;
8714;SDS011;4394;51.208;8.904;2023-12-28T08:24:16;3.10;;;1.87;;
8714;SDS011;4394;51.208;8.904;2023-12-28T08:27:03;1.93;;;1.73;;
8714;SDS011;4394;51.208;8.904;2023-12-28T08:29:51;3.87;;;2.20;;
8714;SDS011;4394;51.208;8.904;2023-12-28T08:32:39;2.00;;;1.80;;
8714;SDS011;4394;51.208;8.904;2023-12-28T08:35:28;2.83;;;2.00;;
8714;SDS011;4394;51.208;8.904;2023-12-28T08:38:17;2.70;;;1.77;;
8714;SDS011;4394;51.208;8.904;2023-12-28T08:41:05;3.30;;;1.73;;
8714;SDS011;4394;51.208;8.904;2023-12-28T08:43:55;3.70;;;2.07;;
8714;SDS011;4394;51.208;8.904;2023-12-28T08:46:43;2.50;;;2.00;;
8714;SDS011;4394;51.208;8.904;2023-12-28T08:49:32;3.80;;;2.07;;
8714;SDS011;4394;51.208;8.904;2023-12-28T08:52:20;3.33;;;2.00;;
8714;SDS011;4394;51.208;8.904;2023-12-28T08:55:10;3.63;;;2.33;;
8714;SDS011;4394;51.208;8.904;2023-12-28T08:57:57;3.00;;;2.10;;
8714;SDS011;4394;51.208;8.904;2023-12-28T09:00:46;3.23;;;2.23;;
8714;SDS011;4394;51.208;8.904;2023-12-28T09:03:35;2.67;;;2.10;;
8714;SDS011;4394;51.208;8.904;2023-12-28T09:06:23;4.00;;;1.90;;
8714;SDS011;4394;51.208;8.904;2023-12-28T09:09:12;2.70;;;2.07;;
8714;SDS011;4394;51.208;8.904;2023-12-28T09:12:01;3.23;;;1.90;;
8714;SDS011;4394;51.208;8.904;2023-12-28T09:14:49;3.20;;;2.20;;
8714;SDS011;4394;51.208;8.904;2023-12-28T09:17:39;3.17;;;2.33;;
8714;SDS011;4394;51.208;8.904;2023-12-28T09:20:27;2.97;;;1.90;;
8714;SDS011;4394;51.208;8.904;2023-12-28T09:23:15;2.73;;;2.00;;
8714;SDS011;4394;51.208;8.904;2023-12-28T09:26:03;3.33;;;2.13;;
8714;SDS011;4394;51.208;8.904;2023-12-28T09:28:53;3.50;;;1.70;;
8714;SDS011;4394;51.208;8.904;2023-12-28T09:31:42;4.33;;;2.27;;
8714;SDS011;4394;51.208;8.904;2023-12-28T09:34:30;2.67;;;1.70;;
8714;SDS011;4394;51.208;8.904;2023-12-28T09:37:18;4.10;;;2.50;;
8714;SDS011;4394;51.208;8.904;2023-12-28T09:40:06;3.27;;;2.03;;
8714;SDS011;4394;51.208;8.904;2023-12-28T09:42:58;2.80;;;1.80;;
8714;SDS011;4394;51.208;8.904;2023-12-28T09:45:52;3.67;;;2.17;;
8714;SDS011;4394;51.208;8.904;2023-12-28T09:48:41;5.00;;;2.20;;
8714;SDS011;4394;51.208;8.904;2023-12-28T09:51:29;3.33;;;2.10;;
8714;SDS011;4394;51.208;8.904;2023-12-28T09:54:18;4.40;;;1.97;;
8714;SDS011;4394;51.208;8.904;2023-12-28T09:57:06;3.77;;;2.10;;
8714;SDS011;4394;51.208;8.904;2023-12-28T09:59:55;3.77;;;2.30;;
8714;SDS011;4394;51.208;8.904;2023-12-28T10:02:45;2.67;;;2.00;;
8714;SDS011;4394;51.208;8.904;2023-12-28T10:05:33;2.50;;;1.77;;
8714;SDS011;4394;51.208;8.904;2023-12-28T10:08:22;2.73;;;2.17;;
8714;SDS011;4394;51.208;8.904;2023-12-28T10:11:10;3.70;;;2.07;;
8714;SDS011;4394;51.208;8.904;2023-12-28T10:13:58;3.00;;;2.20;;
8714;SDS011;4394;51.208;8.904;2023-12-28T10:16:46;2.57;;;1.90;;
8714;SDS011;4394;51.208;8.904;2023-12-28T10:19:36;6.67;;;2.00;;
8714;SDS011;4394;51.208;8.904;2023-12-28T10:22:24;2.87;;;1.80;;
8714;SDS011;4394;51.208;8.904;2023-12-28T10:25:12;2.00;;;1.70;;
8714;SDS011;4394;51.208;8.904;2023-12-28T10:28:03;5.17;;;2.27;;
8714;SDS011;4394;51.208;8.904;2023-12-28T10:30:55;6.13;;;2.33;;
8714;SDS011;4394;51.208;8.904;2023-12-28T10:33:44;4.73;;;2.30;;
8714;SDS011;4394;51.208;8.904;2023-12-28T10:36:34;4.57;;;2.07;;
8714;SDS011;4394;51.208;8.904;2023-12-28T10:39:24;4.23;;;2.50;;
8714;SDS011;4394;51.208;8.904;2023-12-28T10:42:13;2.57;;;2.10;;
8714;SDS011;4394;51.208;8.904;2023-12-28T10:45:04;3.50;;;1.93;;
8714;SDS011;4394;51.208;8.904;2023-12-28T10:47:54;4.17;;;2.23;;
8714;SDS011;4394;51.208;8.904;2023-12-28T10:50:46;3.20;;;1.90;;
8714;SDS011;4394;51.208;8.904;2023-12-28T10:53:38;2.33;;;1.60;;
8714;SDS011;4394;51.208;8.904;2023-12-28T10:56:33;4.37;;;2.30;;
8714;SDS011;4394;51.208;8.904;2023-12-28T10:59:27;3.63;;;2.00;;
8714;SDS011;4394;51.208;8.904;2023-12-28T11:02:23;2.17;;;1.80;;
8714;SDS011;4394;51.208;8.904;2023-12-28T11:05:15;2.73;;;1.50;;
8714;SDS011;4394;51.208;8.904;2023-12-28T11:08:05;2.57;;;1.50;;
8714;SDS011;4394;51.208;8.904;2023-12-28T11:10:56;2.27;;;1.77;;
8714;SDS011;4394;51.208;8.904;2023-12-28T11:13:47;4.83;;;1.80;;
8714;SDS011;4394;51.208;8.904;2023-12-28T11:16:37;3.40;;;1.97;;
8714;SDS011;4394;51.208;8.904;2023-12-28T11:19:27;3.93;;;1.47;;
8714;SDS011;4394;51.208;8.904;2023-12-28T11:22:18;2.33;;;1.70;;
8714;SDS011;4394;51.208;8.904;2023-12-28T11:25:14;3.70;;;1.50;;
8714;SDS011;4394;51.208;8.904;2023-12-28T11:28:13;5.60;;;1.53;;
8714;SDS011;4394;51.208;8.904;2023-12-28T11:31:11;3.60;;;1.23;;
8714;SDS011;4394;51.208;8.904;2023-12-28T11:34:17;4.03;;;1.80;;
8714;SDS011;4394;51.208;8.904;2023-12-28T11:37:17;2.97;;;1.27;;
8714;SDS011;4394;51.208;8.904;2023-12-28T11:40:10;4.67;;;1.63;;
8714;SDS011;4394;51.208;8.904;2023-12-28T11:43:00;4.70;;;1.53;;
8714;SDS011;4394;51.208;8.904;2023-12-28T11:45:54;2.03;;;1.47;;
8714;SDS011;4394;51.208;8.904;2023-12-28T11:48:43;2.50;;;1.47;;
8714;SDS011;4394;51.208;8.904;2023-12-28T11:51:31;4.67;;;1.70;;
8714;SDS011;4394;51.208;8.904;2023-12-28T11:54:19;2.63;;;1.10;;
8714;SDS011;4394;51.208;8.904;2023-12-28T11:57:07;4.13;;;1.40;;
8714;SDS011;4394;51.208;8.904;2023-12-28T11:59:56;3.57;;;1.37;;
8714;SDS011;4394;51.208;8.904;2023-12-28T12:02:46;4.07;;;1.23;;
8714;SDS011;4394;51.208;8.904;2023-12-28T12:05:34;2.73;;;1.53;;
8714;SDS011;4394;51.208;8.904;2023-12-28T12:08:23;5.53;;;1.60;;
8714;SDS011;4394;51.208;8.904;2023-12-28T12:11:11;2.63;;;1.73;;
8714;SDS011;4394;51.208;8.904;2023-12-28T12:13:59;5.20;;;1.50;;
8714;SDS011;4394;51.208;8.904;2023-12-28T12:16:48;2.93;;;1.47;;
8714;SDS011;4394;51.208;8.904;2023-12-28T12:19:40;3.87;;;1.50;;
8714;SDS011;4394;51.208;8.904;2023-12-28T12:22:29;5.40;;;1.67;;
8714;SDS011;4394;51.208;8.904;2023-12-28T12:25:20;2.87;;;1.40;;
8714;SDS011;4394;51.208;8.904;2023-12-28T12:28:08;2.77;;;1.60;;
8714;SDS011;4394;51.208;8.904;2023-12-28T12:30:56;3.47;;;1.43;;
8714;SDS011;4394;51.208;8.904;2023-12-28T12:33:47;2.73;;;1.77;;
8714;SDS011;4394;51.208;8.904;2023-12-28T12:36:39;2.00;;;1.27;;
8714;SDS011;4394;51.208;8.904;2023-12-28T12:39:27;2.47;;;1.60;;
8714;SDS011;4394;51.208;8.904;2023-12-28T12:42:15;4.77;;;1.20;;
8714;SDS011;4394;51.208;8.904;2023-12-28T12:45:04;2.47;;;1.23;;
8714;SDS011;4394;51.208;8.904;2023-12-28T12:47:52;5.27;;;1.47;;
8714;SDS011;4394;51.208;8.904;2023-12-28T12:50:40;2.30;;;1.30;;
8714;SDS011;4394;51.208;8.904;2023-12-28T12:53:33;5.67;;;1.53;;
8714;SDS011;4394;51.208;8.904;2023-12-28T12:56:21;1.70;;;1.20;;
8714;SDS011;4394;51.208;8.904;2023-12-28T12:59:09;2.20;;;1.33;;
8714;SDS011;4394;51.208;8.904;2023-12-28T13:02:02;3.57;;;1.63;;
8714;SDS011;4394;51.208;8.904;2023-12-28T13:04:51;2.37;;;1.43;;
8714;SDS011;4394;51.208;8.904;2023-12-28T13:07:40;2.67;;;1.70;;
8714;SDS011;4394;51.208;8.904;2023-12-28T13:10:29;3.43;;;1.43;;
8714;SDS011;4394;51.208;8.904;2023-12-28T13:13:17;2.90;;;1.10;;
8714;SDS011;4394;51.208;8.904;2023-12-28T13:16:05;3.87;;;1.40;;
8714;SDS011;4394;51.208;8.904;2023-12-28T13:18:53;4.77;;;1.60;;
8714;SDS011;4394;51.208;8.904;2023-12-28T13:21:41;3.13;;;1.20;;
8714;SDS011;4394;51.208;8.904;2023-12-28T13:24:30;4.40;;;1.70;;
8714;SDS011;4394;51.208;8.904;2023-12-28T13:27:21;2.07;;;1.40;;
8714;SDS011;4394;51.208;8.904;2023-12-28T13:30:10;1.73;;;1.10;;
8714;SDS011;4394;51.208;8.904;2023-12-28T13:32:59;4.83;;;1.77;;
8714;SDS011;4394;51.208;8.904;2023-12-28T13:35:47;5.10;;;1.40;;
8714;SDS011;4394;51.208;8.904;2023-12-28T13:38:35;2.90;;;1.40;;
8714;SDS011;4394;51.208;8.904;2023-12-28T13:41:23;3.33;;;1.60;;
8714;SDS011;4394;51.208;8.904;2023-12-28T13:44:13;3.30;;;1.17;;
8714;SDS011;4394;51.208;8.904;2023-12-28T13:47:01;2.00;;;1.10;;
8714;SDS011;4394;51.208;8.904;2023-12-28T13:49:52;2.07;;;1.10;;
8714;SDS011;4394;51.208;8.904;2023-12-28T13:52:41;5.00;;;1.40;;
8714;SDS011;4394;51.208;8.904;2023-12-28T13:55:28;2.60;;;1.20;;
8714;SDS011;4394;51.208;8.904;2023-12-28T13:58:16;2.70;;;1.20;;
8714;SDS011;4394;51.208;8.904;2023-12-28T14:01:06;2.03;;;1.20;;
8714;SDS011;4394;51.208;8.904;2023-12-28T14:03:54;3.33;;;1.60;;
8714;SDS011;4394;51.208;8.904;2023-12-28T14:06:42;1.73;;;1.13;;
8714;SDS011;4394;51.208;8.904;2023-12-28T14:09:30;6.33;;;1.37;;
8714;SDS011;4394;51.208;8.904;2023-12-28T14:12:19;4.57;;;1.93;;
8714;SDS011;4394;51.208;8.904;2023-12-28T14:15:07;4.57;;;1.83;;
8714;SDS011;4394;51.208;8.904;2023-12-28T14:17:57;3.47;;;1.20;;
8714;SDS011;4394;51.208;8.904;2023-12-28T14:20:45;4.27;;;1.40;;
8714;SDS011;4394;51.208;8.904;2023-12-28T14:23:33;4.43;;;1.47;;
8714;SDS011;4394;51.208;8.904;2023-12-28T14:26:21;3.30;;;1.40;;
8714;SDS011;4394;51.208;8.904;2023-12-28T14:29:10;2.70;;;1.20;;
8714;SDS011;4394;51.208;8.904;2023-12-28T14:31:59;4.60;;;1.30;;
8714;SDS011;4394;51.208;8.904;2023-12-28T14:34:49;4.53;;;1.40;;
8714;SDS011;4394;51.208;8.904;2023-12-28T14:37:38;3.17;;;1.30;;
8714;SDS011;4394;51.208;8.904;2023-12-28T14:40:25;3.47;;;1.10;;
8714;SDS011;4394;51.208;8.904;2023-12-28T14:43:13;3.93;;;1.37;;
8714;SDS011;4394;51.208;8.904;2023-12-28T14:46:01;2.93;;;1.27;;
8714;SDS011;4394;51.208;8.904;2023-12-28T14:48:51;3.67;;;1.40;;
8714;SDS011;4394;51.208;8.904;2023-12-28T14:51:40;2.33;;;1.27;;
8714;SDS011;4394;51.208;8.904;2023-12-28T14:54:28;5.27;;;1.27;;
8714;SDS011;4394;51.208;8.904;2023-12-28T14:57:16;6.67;;;1.73;;
8714;SDS011;4394;51.208;8.904;2023-12-28T15:00:05;4.10;;;1.20;;
8714;SDS011;4394;51.208;8.904;2023-12-28T15:02:56;3.33;;;1.30;;
8714;SDS011;4394;51.208;8.904;2023-12-28T15:05:44;6.03;;;1.50;;
8714;SDS011;4394;51.208;8.904;2023-12-28T15:08:33;4.27;;;1.33;;
8714;SDS011;4394;51.208;8.904;2023-12-28T15:11:21;2.73;;;1.03;;
8714;SDS011;4394;51.208;8.904;2023-12-28T15:14:27;4.17;;;1.30;;
8714;SDS011;4394;51.208;8.904;2023-12-28T15:17:17;3.40;;;1.60;;
8714;SDS011;4394;51.208;8.904;2023-12-28T15:20:05;3.10;;;1.30;;
8714;SDS011;4394;51.208;8.904;2023-12-28T15:22:55;2.00;;;1.40;;
8714;SDS011;4394;51.208;8.904;2023-12-28T15:25:45;3.30;;;1.40;;
8714;SDS011;4394;51.208;8.904;2023-12-28T15:28:32;3.27;;;0.97;;
8714;SDS011;4394;51.208;8.904;2023-12-28T15:31:21;3.97;;;1.17;;
8714;SDS011;4394;51.208;8.904;2023-12-28T15:34:09;1.93;;;1.53;;
8714;SDS011;4394;51.208;8.904;2023-12-28T15:36:57;5.50;;;1.27;;
8714;SDS011;4394;51.208;8.904;2023-12-28T15:39:45;4.77;;;1.83;;
8714;SDS011;4394;51.208;8.904;2023-12-28T15:42:34;4.37;;;1.73;;
8714;SDS011;4394;51.208;8.904;2023-12-28T15:45:22;4.73;;;1.40;;
8714;SDS011;4394;51.208;8.904;2023-12-28T15:48:10;8.63;;;1.63;;
8714;SDS011;4394;51.208;8.904;2023-12-28T15:50:59;3.13;;;2.17;;
8714;SDS011;4394;51.208;8.904;2023-12-28T15:53:47;4.70;;;1.40;;
8714;SDS011;4394;51.208;8.904;2023-12-28T15:56:35;4.17;;;1.40;;
8714;SDS011;4394;51.208;8.904;2023-12-28T15:59:24;2.83;;;1.37;;
8714;SDS011;4394;51.208;8.904;2023-12-28T16:02:13;3.90;;;1.57;;
8714;SDS011;4394;51.208;8.904;2023-12-28T16:05:01;1.20;;;1.10;;
8714;SDS011;4394;51.208;8.904;2023-12-28T16:07:49;5.07;;;1.40;;
8714;SDS011;4394;51.208;8.904;2023-12-28T16:10:37;3.80;;;1.30;;
8714;SDS011;4394;51.208;8.904;2023-12-28T16:13:26;4.50;;;1.43;;
8714;SDS011;4394;51.208;8.904;2023-12-28T16:16:15;3.00;;;1.30;;
8714;SDS011;4394;51.208;8.904;2023-12-28T16:19:04;2.97;;;1.63;;
8714;SDS011;4394;51.208;8.904;2023-12-28T16:21:53;3.30;;;1.50;;
8714;SDS011;4394;51.208;8.904;2023-12-28T16:24:41;6.17;;;1.50;;
8714;SDS011;4394;51.208;8.904;2023-12-28T16:27:29;5.13;;;1.43;;
8714;SDS011;4394;51.208;8.904;2023-12-28T16:30:17;2.87;;;1.37;;
8714;SDS011;4394;51.208;8.904;2023-12-28T16:33:06;2.67;;;1.10;;
8714;SDS011;4394;51.208;8.904;2023-12-28T16:35:54;3.20;;;1.43;;
8714;SDS011;4394;51.208;8.904;2023-12-28T16:38:42;3.73;;;1.30;;
8714;SDS011;4394;51.208;8.904;2023-12-28T16:41:30;2.73;;;0.97;;
8714;SDS011;4394;51.208;8.904;2023-12-28T16:44:19;3.73;;;1.60;;
8714;SDS011;4394;51.208;8.904;2023-12-28T16:47:07;4.43;;;1.70;;
8714;SDS011;4394;51.208;8.904;2023-12-28T16:49:56;4.53;;;1.63;;
8714;SDS011;4394;51.208;8.904;2023-12-28T16:52:44;5.47;;;1.40;;
8714;SDS011;4394;51.208;8.904;2023-12-28T16:55:32;4.27;;;1.40;;
8714;SDS011;4394;51.208;8.904;2023-12-28T16:58:20;4.33;;;1.63;;
8714;SDS011;4394;51.208;8.904;2023-12-28T17:01:08;3.93;;;1.80;;
8714;SDS011;4394;51.208;8.904;2023-12-28T17:03:57;3.47;;;1.57;;
8714;SDS011;4394;51.208;8.904;2023-12-28T17:06:46;5.90;;;1.63;;
8714;SDS011;4394;51.208;8.904;2023-12-28T17:09:35;5.00;;;1.50;;
8714;SDS011;4394;51.208;8.904;2023-12-28T17:12:26;4.87;;;1.33;;
8714;SDS011;4394;51.208;8.904;2023-12-28T17:15:18;3.87;;;1.33;;
8714;SDS011;4394;51.208;8.904;2023-12-28T17:18:07;7.23;;;1.60;;
8714;SDS011;4394;51.208;8.904;2023-12-28T17:20:57;4.73;;;1.40;;
8714;SDS011;4394;51.208;8.904;2023-12-28T17:23:47;3.70;;;1.53;;
8714;SDS011;4394;51.208;8.904;2023-12-28T17:26:39;3.80;;;1.27;;
8714;SDS011;4394;51.208;8.904;2023-12-28T17:29:31;3.60;;;1.67;;